sensor_id;sensor_type;location;lat;lon;timestamp;pressure;altitude;pressure_sealevel;temperature
9119;BMP180;4594;50.994;7.126;2023-05-07T00:01:46;100679.00;;;20.00
9119;BMP180;4594;50.994;7.126;2023-05-07T00:04:12;100664.00;;;20.00
9119;BMP180;4594;50.994;7.126;2023-05-07T00:06:39;100691.00;;;20.00
9119;BMP180;4594;50.994;7.126;2023-05-07T00:09:05;100690.00;;;20.00
9119;BMP180;4594;50.994;7.126;2023-05-07T00:11:32;100694.00;;;20.00
9119;BMP180;4594;50.994;7.126;2023-05-07T00:13:58;100689.00;;;20.00
9119;BMP180;4594;50.994;7.126;2023-05-07T00:16:24;100677.00;;;20.00
9119;BMP180;4594;50.994;7.126;2023-05-07T00:18:50;100690.00;;;20.00
9119;BMP180;4594;50.994;7.126;2023-05-07T00:21:16;100661.00;;;20.00
9119;BMP180;4594;50.994;7.126;2023-05-07T00:23:42;100681.00;;;20.00
9119;BMP180;4594;50.994;7.126;2023-05-07T00:26:07;100672.00;;;20.00
9119;BMP180;4594;50.994;7.126;2023-05-07T00:28:33;100683.00;;;19.90
9119;BMP180;4594;50.994;7.126;2023-05-07T00:30:59;100661.00;;;19.90
9119;BMP180;4594;50.994;7.126;2023-05-07T00:33:24;100664.00;;;19.90
9119;BMP180;4594;50.994;7.126;2023-05-07T00:35:52;100675.00;;;19.90
9119;BMP180;4594;50.994;7.126;2023-05-07T00:38:20;100679.00;;;19.90
9119;BMP180;4594;50.994;7.126;2023-05-07T00:40:45;100662.00;;;19.90
9119;BMP180;4594;50.994;7.126;2023-05-07T00:43:11;100675.00;;;19.90
9119;BMP180;4594;50.994;7.126;2023-05-07T00:45:38;100665.00;;;19.90
9119;BMP180;4594;50.994;7.126;2023-05-07T00:48:04;100674.00;;;19.90
9119;BMP180;4594;50.994;7.126;2023-05-07T00:50:32;100669.00;;;19.90
9119;BMP180;4594;50.994;7.126;2023-05-07T00:52:59;100659.00;;;19.90
9119;BMP180;4594;50.994;7.126;2023-05-07T00:55:25;100662.00;;;19.90
9119;BMP180;4594;50.994;7.126;2023-05-07T00:57:51;100661.00;;;19.90
9119;BMP180;4594;50.994;7.126;2023-05-07T01:00:18;100665.00;;;19.80
9119;BMP180;4594;50.994;7.126;2023-05-07T01:02:45;100666.00;;;19.80
9119;BMP180;4594;50.994;7.126;2023-05-07T01:05:15;100656.00;;;19.80
9119;BMP180;4594;50.994;7.126;2023-05-07T01:07:42;100675.00;;;19.80
9119;BMP180;4594;50.994;7.126;2023-05-07T01:10:09;100654.00;;;19.80
9119;BMP180;4594;50.994;7.126;2023-05-07T01:12:37;100656.00;;;19.80
9119;BMP180;4594;50.994;7.126;2023-05-07T01:15:06;100658.00;;;19.80
9119;BMP180;4594;50.994;7.126;2023-05-07T01:17:38;100655.00;;;19.80
9119;BMP180;4594;50.994;7.126;2023-05-07T01:20:06;100649.00;;;19.80
9119;BMP180;4594;50.994;7.126;2023-05-07T01:22:37;100659.00;;;19.80
9119;BMP180;4594;50.994;7.126;2023-05-07T01:25:05;100636.00;;;19.80
9119;BMP180;4594;50.994;7.126;2023-05-07T01:27:31;100635.00;;;19.80
9119;BMP180;4594;50.994;7.126;2023-05-07T01:29:58;100629.00;;;19.80
9119;BMP180;4594;50.994;7.126;2023-05-07T01:32:53;100635.00;;;19.80
9119;BMP180;4594;50.994;7.126;2023-05-07T01:35:29;100639.00;;;19.80
9119;BMP180;4594;50.994;7.126;2023-05-07T01:37:55;100609.00;;;19.90
9119;BMP180;4594;50.994;7.126;2023-05-07T01:40:22;100641.00;;;19.90
9119;BMP180;4594;50.994;7.126;2023-05-07T01:42:48;100647.00;;;19.90
9119;BMP180;4594;50.994;7.126;2023-05-07T01:45:14;100640.00;;;20.00
9119;BMP180;4594;50.994;7.126;2023-05-07T01:47:40;100638.00;;;20.00
9119;BMP180;4594;50.994;7.126;2023-05-07T01:50:07;100641.00;;;20.00
9119;BMP180;4594;50.994;7.126;2023-05-07T01:52:38;100639.00;;;20.00
9119;BMP180;4594;50.994;7.126;2023-05-07T01:55:05;100631.00;;;20.00
9119;BMP180;4594;50.994;7.126;2023-05-07T01:57:31;100625.00;;;20.00
9119;BMP180;4594;50.994;7.126;2023-05-07T01:59:57;100638.00;;;20.10
9119;BMP180;4594;50.994;7.126;2023-05-07T02:02:23;100621.00;;;20.00
9119;BMP180;4594;50.994;7.126;2023-05-07T02:04:48;100625.00;;;20.10
9119;BMP180;4594;50.994;7.126;2023-05-07T02:07:14;100647.00;;;20.00
9119;BMP180;4594;50.994;7.126;2023-05-07T02:09:40;100645.00;;;20.10
9119;BMP180;4594;50.994;7.126;2023-05-07T02:12:05;100642.00;;;20.10
9119;BMP180;4594;50.994;7.126;2023-05-07T02:14:31;100633.00;;;20.10
9119;BMP180;4594;50.994;7.126;2023-05-07T02:16:57;100618.00;;;20.10
9119;BMP180;4594;50.994;7.126;2023-05-07T02:19:22;100639.00;;;20.10
9119;BMP180;4594;50.994;7.126;2023-05-07T02:21:48;100633.00;;;20.00
9119;BMP180;4594;50.994;7.126;2023-05-07T02:24:14;100614.00;;;20.00
9119;BMP180;4594;50.994;7.126;2023-05-07T02:26:42;100638.00;;;20.00
9119;BMP180;4594;50.994;7.126;2023-05-07T02:29:08;100613.00;;;19.90
9119;BMP180;4594;50.994;7.126;2023-05-07T02:31:34;100638.00;;;19.90
9119;BMP180;4594;50.994;7.126;2023-05-07T02:34:00;100632.00;;;19.80
9119;BMP180;4594;50.994;7.126;2023-05-07T02:36:26;100638.00;;;19.80
9119;BMP180;4594;50.994;7.126;2023-05-07T02:38:52;100634.00;;;19.80
9119;BMP180;4594;50.994;7.126;2023-05-07T02:41:18;100639.00;;;19.70
9119;BMP180;4594;50.994;7.126;2023-05-07T02:43:44;100624.00;;;19.70
9119;BMP180;4594;50.994;7.126;2023-05-07T02:46:09;100648.00;;;19.70
9119;BMP180;4594;50.994;7.126;2023-05-07T02:48:35;100647.00;;;19.60
9119;BMP180;4594;50.994;7.126;2023-05-07T02:51:01;100641.00;;;19.60
9119;BMP180;4594;50.994;7.126;2023-05-07T02:53:27;100636.00;;;19.60
9119;BMP180;4594;50.994;7.126;2023-05-07T02:55:59;100627.00;;;19.60
9119;BMP180;4594;50.994;7.126;2023-05-07T02:58:26;100647.00;;;19.50
9119;BMP180;4594;50.994;7.126;2023-05-07T03:00:52;100649.00;;;19.50
9119;BMP180;4594;50.994;7.126;2023-05-07T03:03:20;100647.00;;;19.50
9119;BMP180;4594;50.994;7.126;2023-05-07T03:05:46;100648.00;;;19.50
9119;BMP180;4594;50.994;7.126;2023-05-07T03:08:12;100641.00;;;19.50
9119;BMP180;4594;50.994;7.126;2023-05-07T03:10:38;100626.00;;;19.50
9119;BMP180;4594;50.994;7.126;2023-05-07T03:13:04;100630.00;;;19.50
9119;BMP180;4594;50.994;7.126;2023-05-07T03:15:30;100630.00;;;19.50
9119;BMP180;4594;50.994;7.126;2023-05-07T03:17:56;100631.00;;;19.40
9119;BMP180;4594;50.994;7.126;2023-05-07T03:20:22;100634.00;;;19.40
9119;BMP180;4594;50.994;7.126;2023-05-07T03:22:48;100624.00;;;19.40
9119;BMP180;4594;50.994;7.126;2023-05-07T03:25:13;100635.00;;;19.40
9119;BMP180;4594;50.994;7.126;2023-05-07T03:27:40;100631.00;;;19.30
9119;BMP180;4594;50.994;7.126;2023-05-07T03:30:08;100617.00;;;19.30
9119;BMP180;4594;50.994;7.126;2023-05-07T03:32:34;100630.00;;;19.30
9119;BMP180;4594;50.994;7.126;2023-05-07T03:35:01;100634.00;;;19.30
9119;BMP180;4594;50.994;7.126;2023-05-07T03:37:27;100635.00;;;19.20
9119;BMP180;4594;50.994;7.126;2023-05-07T03:39:53;100623.00;;;19.20
9119;BMP180;4594;50.994;7.126;2023-05-07T03:42:19;100624.00;;;19.20
9119;BMP180;4594;50.994;7.126;2023-05-07T03:44:45;100614.00;;;19.10
9119;BMP180;4594;50.994;7.126;2023-05-07T03:47:10;100621.00;;;19.10
9119;BMP180;4594;50.994;7.126;2023-05-07T03:49:36;100635.00;;;19.10
9119;BMP180;4594;50.994;7.126;2023-05-07T03:52:02;100617.00;;;19.00
9119;BMP180;4594;50.994;7.126;2023-05-07T03:54:28;100636.00;;;19.00
9119;BMP180;4594;50.994;7.126;2023-05-07T03:56:53;100637.00;;;18.90
9119;BMP180;4594;50.994;7.126;2023-05-07T03:59:19;100643.00;;;18.90
9119;BMP180;4594;50.994;7.126;2023-05-07T04:01:45;100639.00;;;18.90
9119;BMP180;4594;50.994;7.126;2023-05-07T04:04:10;100636.00;;;18.90
9119;BMP180;4594;50.994;7.126;2023-05-07T04:06:36;100634.00;;;18.90
9119;BMP180;4594;50.994;7.126;2023-05-07T04:09:02;100653.00;;;18.80
9119;BMP180;4594;50.994;7.126;2023-05-07T04:11:28;100637.00;;;18.80
9119;BMP180;4594;50.994;7.126;2023-05-07T04:13:54;100647.00;;;18.80
9119;BMP180;4594;50.994;7.126;2023-05-07T04:16:20;100646.00;;;18.80
9119;BMP180;4594;50.994;7.126;2023-05-07T04:18:46;100653.00;;;18.70
9119;BMP180;4594;50.994;7.126;2023-05-07T04:21:19;100656.00;;;18.70
9119;BMP180;4594;50.994;7.126;2023-05-07T04:23:49;100659.00;;;18.70
9119;BMP180;4594;50.994;7.126;2023-05-07T04:26:15;100659.00;;;18.70
9119;BMP180;4594;50.994;7.126;2023-05-07T04:28:41;100644.00;;;18.70
9119;BMP180;4594;50.994;7.126;2023-05-07T04:31:07;100656.00;;;18.80
9119;BMP180;4594;50.994;7.126;2023-05-07T04:33:34;100659.00;;;18.80
9119;BMP180;4594;50.994;7.126;2023-05-07T04:36:03;100661.00;;;18.80
9119;BMP180;4594;50.994;7.126;2023-05-07T04:38:30;100659.00;;;18.90
9119;BMP180;4594;50.994;7.126;2023-05-07T04:40:58;100644.00;;;18.90
9119;BMP180;4594;50.994;7.126;2023-05-07T04:43:27;100648.00;;;19.00
9119;BMP180;4594;50.994;7.126;2023-05-07T04:45:53;100640.00;;;19.00
9119;BMP180;4594;50.994;7.126;2023-05-07T04:48:19;100650.00;;;19.00
9119;BMP180;4594;50.994;7.126;2023-05-07T04:50:52;100644.00;;;19.10
9119;BMP180;4594;50.994;7.126;2023-05-07T04:53:18;100634.00;;;19.10
9119;BMP180;4594;50.994;7.126;2023-05-07T04:55:44;100627.00;;;19.20
9119;BMP180;4594;50.994;7.126;2023-05-07T04:58:11;100648.00;;;19.30
9119;BMP180;4594;50.994;7.126;2023-05-07T05:00:38;100654.00;;;19.30
9119;BMP180;4594;50.994;7.126;2023-05-07T05:03:06;100657.00;;;19.40
9119;BMP180;4594;50.994;7.126;2023-05-07T05:05:32;100655.00;;;19.50
9119;BMP180;4594;50.994;7.126;2023-05-07T05:07:57;100653.00;;;19.60
9119;BMP180;4594;50.994;7.126;2023-05-07T05:10:23;100652.00;;;19.70
9119;BMP180;4594;50.994;7.126;2023-05-07T05:12:49;100658.00;;;19.80
9119;BMP180;4594;50.994;7.126;2023-05-07T05:15:15;100659.00;;;19.90
9119;BMP180;4594;50.994;7.126;2023-05-07T05:17:40;100659.00;;;20.00
9119;BMP180;4594;50.994;7.126;2023-05-07T05:20:06;100659.00;;;20.20
9119;BMP180;4594;50.994;7.126;2023-05-07T05:22:33;100655.00;;;20.30
9119;BMP180;4594;50.994;7.126;2023-05-07T05:24:58;100653.00;;;20.40
9119;BMP180;4594;50.994;7.126;2023-05-07T05:27:24;100660.00;;;20.50
9119;BMP180;4594;50.994;7.126;2023-05-07T05:29:50;100654.00;;;20.50
9119;BMP180;4594;50.994;7.126;2023-05-07T05:32:16;100657.00;;;20.60
9119;BMP180;4594;50.994;7.126;2023-05-07T05:34:41;100657.00;;;20.70
9119;BMP180;4594;50.994;7.126;2023-05-07T05:37:07;100644.00;;;20.80
9119;BMP180;4594;50.994;7.126;2023-05-07T05:39:33;100647.00;;;20.90
9119;BMP180;4594;50.994;7.126;2023-05-07T05:41:59;100667.00;;;21.00
9119;BMP180;4594;50.994;7.126;2023-05-07T05:44:25;100669.00;;;21.10
9119;BMP180;4594;50.994;7.126;2023-05-07T05:46:50;100671.00;;;21.20
9119;BMP180;4594;50.994;7.126;2023-05-07T05:49:16;100667.00;;;21.30
9119;BMP180;4594;50.994;7.126;2023-05-07T05:51:43;100655.00;;;21.40
9119;BMP180;4594;50.994;7.126;2023-05-07T05:54:09;100666.00;;;21.40
9119;BMP180;4594;50.994;7.126;2023-05-07T05:56:34;100668.00;;;21.50
9119;BMP180;4594;50.994;7.126;2023-05-07T05:59:00;100655.00;;;21.60
9119;BMP180;4594;50.994;7.126;2023-05-07T06:01:26;100659.00;;;21.60
9119;BMP180;4594;50.994;7.126;2023-05-07T06:03:52;100667.00;;;21.70
9119;BMP180;4594;50.994;7.126;2023-05-07T06:06:17;100673.00;;;21.70
9119;BMP180;4594;50.994;7.126;2023-05-07T06:08:43;100658.00;;;21.80
9119;BMP180;4594;50.994;7.126;2023-05-07T06:11:09;100666.00;;;21.90
9119;BMP180;4594;50.994;7.126;2023-05-07T06:13:34;100669.00;;;21.90
9119;BMP180;4594;50.994;7.126;2023-05-07T06:16:00;100679.00;;;22.00
9119;BMP180;4594;50.994;7.126;2023-05-07T06:18:26;100661.00;;;22.00
9119;BMP180;4594;50.994;7.126;2023-05-07T06:20:52;100669.00;;;22.10
9119;BMP180;4594;50.994;7.126;2023-05-07T06:23:18;100680.00;;;22.20
9119;BMP180;4594;50.994;7.126;2023-05-07T06:25:51;100685.00;;;22.20
9119;BMP180;4594;50.994;7.126;2023-05-07T06:28:17;100681.00;;;22.30
9119;BMP180;4594;50.994;7.126;2023-05-07T06:30:42;100682.00;;;22.40
9119;BMP180;4594;50.994;7.126;2023-05-07T06:33:08;100666.00;;;22.50
9119;BMP180;4594;50.994;7.126;2023-05-07T06:35:34;100680.00;;;22.60
9119;BMP180;4594;50.994;7.126;2023-05-07T06:38:00;100680.00;;;22.60
9119;BMP180;4594;50.994;7.126;2023-05-07T06:40:26;100675.00;;;22.70
9119;BMP180;4594;50.994;7.126;2023-05-07T06:42:52;100671.00;;;22.80
9119;BMP180;4594;50.994;7.126;2023-05-07T06:45:19;100690.00;;;22.90
9119;BMP180;4594;50.994;7.126;2023-05-07T06:47:45;100672.00;;;22.90
9119;BMP180;4594;50.994;7.126;2023-05-07T06:50:11;100689.00;;;23.00
9119;BMP180;4594;50.994;7.126;2023-05-07T06:52:37;100676.00;;;23.10
9119;BMP180;4594;50.994;7.126;2023-05-07T06:55:03;100694.00;;;23.20
9119;BMP180;4594;50.994;7.126;2023-05-07T06:57:29;100682.00;;;23.40
9119;BMP180;4594;50.994;7.126;2023-05-07T06:59:55;100696.00;;;23.60
9119;BMP180;4594;50.994;7.126;2023-05-07T07:02:21;100680.00;;;23.90
9119;BMP180;4594;50.994;7.126;2023-05-07T07:04:47;100680.00;;;24.10
9119;BMP180;4594;50.994;7.126;2023-05-07T07:07:13;100675.00;;;24.50
9119;BMP180;4594;50.994;7.126;2023-05-07T07:09:38;100687.00;;;24.80
9119;BMP180;4594;50.994;7.126;2023-05-07T07:12:04;100688.00;;;25.20
9119;BMP180;4594;50.994;7.126;2023-05-07T07:14:30;100667.00;;;25.50
9119;BMP180;4594;50.994;7.126;2023-05-07T07:16:56;100693.00;;;25.90
9119;BMP180;4594;50.994;7.126;2023-05-07T07:19:21;100693.00;;;26.30
9119;BMP180;4594;50.994;7.126;2023-05-07T07:21:47;100698.00;;;26.70
9119;BMP180;4594;50.994;7.126;2023-05-07T07:24:14;100693.00;;;27.20
9119;BMP180;4594;50.994;7.126;2023-05-07T07:26:44;100698.00;;;27.60
9119;BMP180;4594;50.994;7.126;2023-05-07T07:29:10;100692.00;;;27.90
9119;BMP180;4594;50.994;7.126;2023-05-07T07:31:36;100701.00;;;28.10
9119;BMP180;4594;50.994;7.126;2023-05-07T07:34:02;100699.00;;;28.40
9119;BMP180;4594;50.994;7.126;2023-05-07T07:36:27;100697.00;;;28.70
9119;BMP180;4594;50.994;7.126;2023-05-07T07:38:54;100696.00;;;29.30
9119;BMP180;4594;50.994;7.126;2023-05-07T07:41:20;100710.00;;;29.90
9119;BMP180;4594;50.994;7.126;2023-05-07T07:43:45;100713.00;;;30.30
9119;BMP180;4594;50.994;7.126;2023-05-07T07:46:12;100698.00;;;30.60
9119;BMP180;4594;50.994;7.126;2023-05-07T07:48:37;100707.00;;;30.80
9119;BMP180;4594;50.994;7.126;2023-05-07T07:51:03;100699.00;;;31.20
9119;BMP180;4594;50.994;7.126;2023-05-07T07:53:29;100702.00;;;31.50
9119;BMP180;4594;50.994;7.126;2023-05-07T07:55:55;100699.00;;;31.90
9119;BMP180;4594;50.994;7.126;2023-05-07T07:58:21;100710.00;;;32.20
9119;BMP180;4594;50.994;7.126;2023-05-07T08:00:47;100716.00;;;32.60
9119;BMP180;4594;50.994;7.126;2023-05-07T08:03:14;100713.00;;;33.10
9119;BMP180;4594;50.994;7.126;2023-05-07T08:05:42;100707.00;;;33.40
9119;BMP180;4594;50.994;7.126;2023-05-07T08:08:08;100718.00;;;33.70
9119;BMP180;4594;50.994;7.126;2023-05-07T08:10:33;100723.00;;;33.70
9119;BMP180;4594;50.994;7.126;2023-05-07T08:13:00;100731.00;;;33.60
9119;BMP180;4594;50.994;7.126;2023-05-07T08:15:27;100725.00;;;33.30
9119;BMP180;4594;50.994;7.126;2023-05-07T08:17:52;100724.00;;;33.10
9119;BMP180;4594;50.994;7.126;2023-05-07T08:20:18;100729.00;;;33.00
9119;BMP180;4594;50.994;7.126;2023-05-07T08:22:44;100725.00;;;32.80
9119;BMP180;4594;50.994;7.126;2023-05-07T08:25:10;100736.00;;;32.70
9119;BMP180;4594;50.994;7.126;2023-05-07T08:27:35;100736.00;;;32.60
9119;BMP180;4594;50.994;7.126;2023-05-07T08:30:02;100731.00;;;32.60
9119;BMP180;4594;50.994;7.126;2023-05-07T08:32:28;100719.00;;;32.60
9119;BMP180;4594;50.994;7.126;2023-05-07T08:34:53;100724.00;;;32.60
9119;BMP180;4594;50.994;7.126;2023-05-07T08:37:19;100738.00;;;32.60
9119;BMP180;4594;50.994;7.126;2023-05-07T08:39:45;100727.00;;;32.80
9119;BMP180;4594;50.994;7.126;2023-05-07T08:42:12;100736.00;;;33.20
9119;BMP180;4594;50.994;7.126;2023-05-07T08:44:45;100727.00;;;33.70
9119;BMP180;4594;50.994;7.126;2023-05-07T08:47:12;100730.00;;;34.10
9119;BMP180;4594;50.994;7.126;2023-05-07T08:49:38;100723.00;;;34.50
9119;BMP180;4594;50.994;7.126;2023-05-07T08:52:04;100717.00;;;34.90
9119;BMP180;4594;50.994;7.126;2023-05-07T08:54:31;100720.00;;;35.60
9119;BMP180;4594;50.994;7.126;2023-05-07T08:56:57;100722.00;;;36.40
9119;BMP180;4594;50.994;7.126;2023-05-07T08:59:23;100720.00;;;37.30
9119;BMP180;4594;50.994;7.126;2023-05-07T09:01:49;100719.00;;;37.90
9119;BMP180;4594;50.994;7.126;2023-05-07T09:04:14;100721.00;;;38.10
9119;BMP180;4594;50.994;7.126;2023-05-07T09:06:40;100718.00;;;38.30
9119;BMP180;4594;50.994;7.126;2023-05-07T09:09:07;100720.00;;;38.10
9119;BMP180;4594;50.994;7.126;2023-05-07T09:11:33;100717.00;;;38.00
9119;BMP180;4594;50.994;7.126;2023-05-07T09:13:59;100726.00;;;37.80
9119;BMP180;4594;50.994;7.126;2023-05-07T09:16:29;100728.00;;;37.50
9119;BMP180;4594;50.994;7.126;2023-05-07T09:18:58;100720.00;;;37.30
9119;BMP180;4594;50.994;7.126;2023-05-07T09:21:24;100718.00;;;37.20
9119;BMP180;4594;50.994;7.126;2023-05-07T09:23:55;100723.00;;;36.80
9119;BMP180;4594;50.994;7.126;2023-05-07T09:26:24;100710.00;;;36.40
9119;BMP180;4594;50.994;7.126;2023-05-07T09:28:51;100715.00;;;36.00
9119;BMP180;4594;50.994;7.126;2023-05-07T09:31:17;100710.00;;;35.90
9119;BMP180;4594;50.994;7.126;2023-05-07T09:33:43;100704.00;;;36.20
9119;BMP180;4594;50.994;7.126;2023-05-07T09:36:09;100714.00;;;36.50
9119;BMP180;4594;50.994;7.126;2023-05-07T09:38:37;100723.00;;;36.60
9119;BMP180;4594;50.994;7.126;2023-05-07T09:41:08;100729.00;;;36.70
9119;BMP180;4594;50.994;7.126;2023-05-07T09:43:37;100741.00;;;36.70
9119;BMP180;4594;50.994;7.126;2023-05-07T09:46:13;100719.00;;;36.60
9119;BMP180;4594;50.994;7.126;2023-05-07T09:48:42;100731.00;;;36.40
9119;BMP180;4594;50.994;7.126;2023-05-07T09:51:32;100730.00;;;36.30
9119;BMP180;4594;50.994;7.126;2023-05-07T09:54:01;100717.00;;;36.50
9119;BMP180;4594;50.994;7.126;2023-05-07T09:56:30;100731.00;;;36.80
9119;BMP180;4594;50.994;7.126;2023-05-07T09:59:00;100714.00;;;37.20
9119;BMP180;4594;50.994;7.126;2023-05-07T10:01:27;100721.00;;;37.80
9119;BMP180;4594;50.994;7.126;2023-05-07T10:03:53;100716.00;;;38.30
9119;BMP180;4594;50.994;7.126;2023-05-07T10:06:25;100730.00;;;38.70
9119;BMP180;4594;50.994;7.126;2023-05-07T10:08:55;100715.00;;;39.00
9119;BMP180;4594;50.994;7.126;2023-05-07T10:11:22;100709.00;;;39.20
9119;BMP180;4594;50.994;7.126;2023-05-07T10:13:48;100724.00;;;39.10
9119;BMP180;4594;50.994;7.126;2023-05-07T10:16:14;100721.00;;;38.90
9119;BMP180;4594;50.994;7.126;2023-05-07T10:18:40;100717.00;;;38.70
9119;BMP180;4594;50.994;7.126;2023-05-07T10:21:21;100729.00;;;38.40
9119;BMP180;4594;50.994;7.126;2023-05-07T10:23:59;100726.00;;;38.10
9119;BMP180;4594;50.994;7.126;2023-05-07T10:26:28;100724.00;;;37.80
9119;BMP180;4594;50.994;7.126;2023-05-07T10:29:10;100722.00;;;37.40
9119;BMP180;4594;50.994;7.126;2023-05-07T10:34:39;100728.00;;;36.70
9119;BMP180;4594;50.994;7.126;2023-05-07T10:37:07;100727.00;;;36.40
9119;BMP180;4594;50.994;7.126;2023-05-07T10:39:34;100734.00;;;36.10
9119;BMP180;4594;50.994;7.126;2023-05-07T10:42:14;100724.00;;;35.70
9119;BMP180;4594;50.994;7.126;2023-05-07T10:44:40;100725.00;;;35.50
9119;BMP180;4594;50.994;7.126;2023-05-07T10:47:12;100734.00;;;35.30
9119;BMP180;4594;50.994;7.126;2023-05-07T10:52:22;100729.00;;;34.90
9119;BMP180;4594;50.994;7.126;2023-05-07T10:57:43;100730.00;;;34.30
9119;BMP180;4594;50.994;7.126;2023-05-07T11:05:32;100721.00;;;34.30
9119;BMP180;4594;50.994;7.126;2023-05-07T11:08:00;100717.00;;;34.50
9119;BMP180;4594;50.994;7.126;2023-05-07T11:10:55;100706.00;;;35.10
9119;BMP180;4594;50.994;7.126;2023-05-07T11:13:44;100694.00;;;35.80
9119;BMP180;4594;50.994;7.126;2023-05-07T11:16:24;100702.00;;;36.20
9119;BMP180;4594;50.994;7.126;2023-05-07T11:18:55;100714.00;;;36.50
9119;BMP180;4594;50.994;7.126;2023-05-07T11:21:36;100714.00;;;36.60
9119;BMP180;4594;50.994;7.126;2023-05-07T11:24:04;100705.00;;;36.60
9119;BMP180;4594;50.994;7.126;2023-05-07T11:29:22;100701.00;;;36.80
9119;BMP180;4594;50.994;7.126;2023-05-07T11:31:55;100700.00;;;37.00
9119;BMP180;4594;50.994;7.126;2023-05-07T11:34:25;100699.00;;;37.00
9119;BMP180;4594;50.994;7.126;2023-05-07T11:36:52;100695.00;;;36.80
9119;BMP180;4594;50.994;7.126;2023-05-07T11:39:32;100712.00;;;36.50
9119;BMP180;4594;50.994;7.126;2023-05-07T11:42:02;100717.00;;;36.20
9119;BMP180;4594;50.994;7.126;2023-05-07T11:44:44;100713.00;;;35.80
9119;BMP180;4594;50.994;7.126;2023-05-07T11:47:17;100719.00;;;35.40
9119;BMP180;4594;50.994;7.126;2023-05-07T11:49:43;100707.00;;;35.10
9119;BMP180;4594;50.994;7.126;2023-05-07T11:52:09;100706.00;;;34.90
9119;BMP180;4594;50.994;7.126;2023-05-07T11:54:37;100700.00;;;34.70
9119;BMP180;4594;50.994;7.126;2023-05-07T11:57:02;100704.00;;;34.50
9119;BMP180;4594;50.994;7.126;2023-05-07T11:59:28;100696.00;;;34.40
9119;BMP180;4594;50.994;7.126;2023-05-07T12:01:57;100703.00;;;34.20
9119;BMP180;4594;50.994;7.126;2023-05-07T12:04:24;100706.00;;;34.00
9119;BMP180;4594;50.994;7.126;2023-05-07T12:06:54;100703.00;;;33.80
9119;BMP180;4594;50.994;7.126;2023-05-07T12:09:21;100715.00;;;33.60
9119;BMP180;4594;50.994;7.126;2023-05-07T12:11:47;100698.00;;;33.40
9119;BMP180;4594;50.994;7.126;2023-05-07T12:14:13;100716.00;;;33.20
9119;BMP180;4594;50.994;7.126;2023-05-07T12:16:41;100701.00;;;33.00
9119;BMP180;4594;50.994;7.126;2023-05-07T12:19:08;100713.00;;;32.90
9119;BMP180;4594;50.994;7.126;2023-05-07T12:21:38;100706.00;;;32.70
9119;BMP180;4594;50.994;7.126;2023-05-07T12:24:05;100696.00;;;32.60
9119;BMP180;4594;50.994;7.126;2023-05-07T12:26:31;100716.00;;;32.60
9119;BMP180;4594;50.994;7.126;2023-05-07T12:28:59;100706.00;;;32.40
9119;BMP180;4594;50.994;7.126;2023-05-07T12:31:28;100697.00;;;32.30
9119;BMP180;4594;50.994;7.126;2023-05-07T12:33:54;100712.00;;;32.20
9119;BMP180;4594;50.994;7.126;2023-05-07T12:36:20;100709.00;;;32.10
9119;BMP180;4594;50.994;7.126;2023-05-07T12:38:49;100717.00;;;31.90
9119;BMP180;4594;50.994;7.126;2023-05-07T12:41:16;100703.00;;;31.90
9119;BMP180;4594;50.994;7.126;2023-05-07T12:43:44;100712.00;;;31.80
9119;BMP180;4594;50.994;7.126;2023-05-07T12:46:11;100706.00;;;31.70
9119;BMP180;4594;50.994;7.126;2023-05-07T12:48:44;100711.00;;;31.60
9119;BMP180;4594;50.994;7.126;2023-05-07T12:51:12;100709.00;;;31.60
9119;BMP180;4594;50.994;7.126;2023-05-07T12:53:42;100717.00;;;31.50
9119;BMP180;4594;50.994;7.126;2023-05-07T12:56:09;100715.00;;;31.50
9119;BMP180;4594;50.994;7.126;2023-05-07T12:58:35;100722.00;;;31.40
9119;BMP180;4594;50.994;7.126;2023-05-07T13:01:06;100720.00;;;31.40
9119;BMP180;4594;50.994;7.126;2023-05-07T13:03:36;100728.00;;;31.30
9119;BMP180;4594;50.994;7.126;2023-05-07T13:06:07;100720.00;;;31.20
9119;BMP180;4594;50.994;7.126;2023-05-07T13:08:40;100721.00;;;31.10
9119;BMP180;4594;50.994;7.126;2023-05-07T13:11:10;100710.00;;;31.10
9119;BMP180;4594;50.994;7.126;2023-05-07T13:13:38;100724.00;;;31.00
9119;BMP180;4594;50.994;7.126;2023-05-07T13:16:05;100709.00;;;31.00
9119;BMP180;4594;50.994;7.126;2023-05-07T13:18:32;100708.00;;;31.00
9119;BMP180;4594;50.994;7.126;2023-05-07T13:21:00;100724.00;;;31.00
9119;BMP180;4594;50.994;7.126;2023-05-07T13:23:27;100717.00;;;31.00
9119;BMP180;4594;50.994;7.126;2023-05-07T13:25:53;100715.00;;;30.90
9119;BMP180;4594;50.994;7.126;2023-05-07T13:28:25;100718.00;;;30.80
9119;BMP180;4594;50.994;7.126;2023-05-07T13:30:52;100722.00;;;30.70
9119;BMP180;4594;50.994;7.126;2023-05-07T13:33:19;100719.00;;;30.70
9119;BMP180;4594;50.994;7.126;2023-05-07T13:35:45;100720.00;;;30.80
9119;BMP180;4594;50.994;7.126;2023-05-07T13:38:11;100721.00;;;30.70
9119;BMP180;4594;50.994;7.126;2023-05-07T13:40:36;100714.00;;;30.80
9119;BMP180;4594;50.994;7.126;2023-05-07T13:43:02;100718.00;;;30.80
9119;BMP180;4594;50.994;7.126;2023-05-07T13:45:29;100718.00;;;30.90
9119;BMP180;4594;50.994;7.126;2023-05-07T13:47:56;100708.00;;;31.00
9119;BMP180;4594;50.994;7.126;2023-05-07T13:50:22;100714.00;;;31.00
9119;BMP180;4594;50.994;7.126;2023-05-07T13:52:48;100708.00;;;31.00
9119;BMP180;4594;50.994;7.126;2023-05-07T13:55:21;100706.00;;;31.00
9119;BMP180;4594;50.994;7.126;2023-05-07T13:57:47;100705.00;;;30.90
9119;BMP180;4594;50.994;7.126;2023-05-07T14:00:14;100708.00;;;30.90
9119;BMP180;4594;50.994;7.126;2023-05-07T14:02:40;100694.00;;;30.90
9119;BMP180;4594;50.994;7.126;2023-05-07T14:05:07;100695.00;;;30.80
9119;BMP180;4594;50.994;7.126;2023-05-07T14:07:33;100703.00;;;30.80
9119;BMP180;4594;50.994;7.126;2023-05-07T14:09:59;100713.00;;;30.70
9119;BMP180;4594;50.994;7.126;2023-05-07T14:12:24;100702.00;;;30.60
9119;BMP180;4594;50.994;7.126;2023-05-07T14:14:50;100703.00;;;30.50
9119;BMP180;4594;50.994;7.126;2023-05-07T14:17:17;100707.00;;;30.50
9119;BMP180;4594;50.994;7.126;2023-05-07T14:19:43;100727.00;;;30.40
9119;BMP180;4594;50.994;7.126;2023-05-07T14:22:09;100726.00;;;30.30
9119;BMP180;4594;50.994;7.126;2023-05-07T14:24:35;100730.00;;;30.10
9119;BMP180;4594;50.994;7.126;2023-05-07T14:27:01;100747.00;;;29.70
9119;BMP180;4594;50.994;7.126;2023-05-07T14:29:27;100750.00;;;29.20
9119;BMP180;4594;50.994;7.126;2023-05-07T14:31:53;100780.00;;;28.80
9119;BMP180;4594;50.994;7.126;2023-05-07T14:34:18;100786.00;;;28.30
9119;BMP180;4594;50.994;7.126;2023-05-07T14:36:44;100774.00;;;27.80
9119;BMP180;4594;50.994;7.126;2023-05-07T14:39:10;100794.00;;;27.50